Home > Products > Valid Products > TAF

000
FTUS43 KFSD 291720
TAFHON
TAF
KHON 291720Z 2918/3018 08009KT P6SM SCT030
     FM300900 05011KT P6SM BKN030
     FM301100 05015G22KT P6SM SCT035=



000
FTUS43 KFSD 291720
TAFFSD
TAF
KFSD 291720Z 2918/3018 07010KT P6SM OVC012
     FM292200 08012KT P6SM BKN025
     FM300900 07015G23KT P6SM BKN015
     FM301200 07019G27KT P6SM OVC012
     FM301500 06020G29KT P6SM RA OVC010=



000
FTUS43 KFSD 291720
TAFSUX
TAF
KSUX 291720Z 2918/3018 06008KT P6SM OVC015
     FM292200 07012KT P6SM BKN025
     FM300000 07012KT P6SM VCSH SCT025 BKN080
     FM300600 08014G21KT P6SM RA OVC020
     FM300800 07018G25KT P6SM RA OVC015
     FM301300 06019G27KT 3SM RA OVC007=



000
FTUS43 KFSD 291720
TAFHON
TAF
KHON 291720Z 2918/3018 08009KT P6SM SCT030
     FM300900 05011KT P6SM BKN030
     FM301100 05015G22KT P6SM SCT035=



000
FTUS43 KFSD 291720
TAFFSD
TAF
KFSD 291720Z 2918/3018 07010KT P6SM OVC012
     FM292200 08012KT P6SM BKN025
     FM300900 07015G23KT P6SM BKN015
     FM301200 07019G27KT P6SM OVC012
     FM301500 06020G29KT P6SM RA OVC010=



000
FTUS43 KFSD 291720
TAFSUX
TAF
KSUX 291720Z 2918/3018 06008KT P6SM OVC015
     FM292200 07012KT P6SM BKN025
     FM300000 07012KT P6SM VCSH SCT025 BKN080
     FM300600 08014G21KT P6SM RA OVC020
     FM300800 07018G25KT P6SM RA OVC015
     FM301300 06019G27KT 3SM RA OVC007=



000
FTUS43 KFSD 291143 CCA
TAFHON
TAF COR
KHON 291143Z 2912/3012 VRB04KT P6SM BKN015
      TEMPO 2912/2915 SCT015 BKN200
     FM291500 07005KT P6SM BKN018 BKN060
     FM291700 08010KT P6SM BKN025
     FM292000 09011KT P6SM BKN035
     FM300600 05008KT P6SM SCT035 BKN150=



000
FTUS43 KFSD 291133
TAFHON
TAF
KHON 291133Z 2912/3012 VRB04KT P6SM BKN015
      TEMPO 2912/2915 SCT015 BKN200
     FM291500 07005KT P6SM SCT018 BKN060
     FM291700 08010KT P6SM BKN025
     FM292000 09011KT P6SM BKN035
     FM300600 05008KT P6SM SCT035 BKN150=



000
FTUS43 KFSD 291133
TAFSUX
TAF
KSUX 291133Z 2912/3012 02005KT P6SM SCT010 OVC022
      TEMPO 2912/2914 BKN010
     FM291400 03007KT P6SM OVC010
     FM291800 07012KT P6SM OVC018
     FM292300 08011KT P6SM BKN022
     FM300500 08012G18KT 6SM RA OVC020
     FM300900 07016G25KT 3SM RA OVC007=



000
FTUS43 KFSD 291133
TAFFSD
TAF
KFSD 291133Z 2912/3012 04004KT P6SM SCT008 OVC015
      TEMPO 2912/2914 BKN008
     FM291400 06009KT P6SM OVC012
     FM291900 08010KT P6SM BKN028
     FM300700 08013KT P6SM OVC015
     FM301100 07014G20KT P6SM -RA OVC010=



000
FTUS43 KFSD 291133
TAFHON
TAF
KHON 291133Z 2912/3012 VRB04KT P6SM BKN015
      TEMPO 2912/2915 SCT015 BKN200
     FM291500 07005KT P6SM SCT018 BKN060
     FM291700 08010KT P6SM BKN025
     FM292000 09011KT P6SM BKN035
     FM300600 05008KT P6SM SCT035 BKN150=



000
FTUS43 KFSD 291133
TAFFSD
TAF
KFSD 291133Z 2912/3012 04004KT P6SM SCT008 OVC015
      TEMPO 2912/2914 BKN008
     FM291400 06009KT P6SM OVC012
     FM291900 08010KT P6SM BKN028
     FM300700 08013KT P6SM OVC015
     FM301100 07014G20KT P6SM -RA OVC010=



000
FTUS43 KFSD 291133
TAFSUX
TAF
KSUX 291133Z 2912/3012 02005KT P6SM SCT010 OVC022
      TEMPO 2912/2914 BKN010
     FM291400 03007KT P6SM OVC010
     FM291800 07012KT P6SM OVC018
     FM292300 08011KT P6SM BKN022
     FM300500 08012G18KT 6SM RA OVC020
     FM300900 07016G25KT 3SM RA OVC007=



000
FTUS43 KFSD 291028 AAC
TAFSUX
TAF AMD
KSUX 291028Z 2910/3006 02005KT P6SM SCT010 OVC022
      TEMPO 2911/2914 5SM BR BKN010
     FM291400 04008KT P6SM OVC015
     FM292300 06010KT P6SM OVC040=



000
FTUS43 KFSD 291026 AAC
TAFFSD
TAF AMD
KFSD 291026Z 2910/3006 04004KT P6SM SCT008 OVC015
      TEMPO 2910/2914 BKN008
     FM291400 06009KT P6SM OVC012
     FM291900 06010KT P6SM OVC035=



000
FTUS43 KFSD 290858 AAB
TAFHON
TAF AMD
KHON 290858Z 2909/3006 VRB06KT P6SM BKN015
      TEMPO 2909/2911 SCT015 BKN090
     FM291600 07009KT P6SM OVC035
     FM300100 05005KT P6SM BKN120=



000
FTUS43 KFSD 290759 AAB
TAFSUX
TAF AMD
KSUX 290759Z 2908/3006 02007KT P6SM SCT008 OVC018
      TEMPO 2910/2914 5SM BR BKN008
     FM291400 04008KT P6SM OVC015
     FM292300 06010KT P6SM OVC040=



000
FTUS43 KFSD 290702 AAA
TAFSUX
TAF AMD
KSUX 290702Z 2907/3006 02007KT 5SM BR OVC008
     FM291400 04008KT P6SM OVC015
     FM292300 06010KT P6SM OVC040=



000
FTUS43 KFSD 290702 AAA
TAFSUX
TAF AMD
KSUX 290702Z 2907/3006 02007KT 5SM BR OVC008
     FM291400 04008KT P6SM OVC015
     FM292300 06010KT P6SM OVC040=



000
FTUS43 KFSD 290608 AAA
TAFHON
TAF AMD
KHON 290608Z 2906/3006 VRB06KT P6SM SCT015 OVC050
     FM291000 VRB03KT P6SM OVC022
     FM291600 07009KT P6SM OVC035
     FM300100 05005KT P6SM BKN120=



000
FTUS43 KFSD 290520
TAFFSD
TAF
KFSD 290520Z 2906/3006 04007KT P6SM OVC008
     FM290800 03004KT 4SM BR OVC005
     FM291400 06009KT P6SM OVC012
     FM291900 06010KT P6SM OVC035=



000
FTUS43 KFSD 290520
TAFHON
TAF
KHON 290520Z 2906/3006 VRB06KT P6SM BKN025 OVC035
     FM291000 VRB03KT P6SM OVC022
     FM291600 07009KT P6SM OVC035
     FM300100 05005KT P6SM BKN120=



000
FTUS43 KFSD 290520
TAFSUX
TAF
KSUX 290520Z 2906/3006 01008KT P6SM OVC015
     FM290800 04005KT 5SM BR OVC009
     FM291400 04008KT P6SM OVC015
     FM292300 06010KT P6SM OVC040=



000
FTUS43 KFSD 290327 AAA
TAFHON
TAF AMD
KHON 290327Z 2903/2924 05009KT P6SM BKN025 OVC035
     FM291000 VRB03KT P6SM OVC020
     FM291600 07009KT P6SM OVC035=



000
FTUS43 KFSD 290327 AAB
TAFFSD
TAF AMD
KFSD 290327Z 2903/2924 04007KT P6SM OVC008
     FM290800 05004KT P6SM OVC015
     FM291100 05005KT 5SM BR OVC007
     FM291500 06009KT P6SM OVC012
     FM291900 06010KT P6SM OVC035=



000
FTUS43 KFSD 290327 AAA
TAFHON
TAF AMD
KHON 290327Z 2903/2924 05009KT P6SM BKN025 OVC035
     FM291000 VRB03KT P6SM OVC020
     FM291600 07009KT P6SM OVC035=



000
FTUS43 KFSD 290327 AAB
TAFFSD
TAF AMD
KFSD 290327Z 2903/2924 04007KT P6SM OVC008
     FM290800 05004KT P6SM OVC015
     FM291100 05005KT 5SM BR OVC007
     FM291500 06009KT P6SM OVC012
     FM291900 06010KT P6SM OVC035=



000
FTUS43 KFSD 290327 AAA
TAFSUX
TAF AMD
KSUX 290327Z 2903/2924 01008KT P6SM OVC015
     FM290800 04005KT 6SM BR OVC010
     FM291500 04008KT P6SM OVC015
     FM292300 06010KT P6SM OVC040=



000
FTUS43 KFSD 282320
TAFSUX
TAF
KSUX 282320Z 2900/2924 33009KT P6SM OVC019
     FM290100 02008KT P6SM OVC025
     FM290800 04005KT 6SM BR OVC010
     FM291500 04008KT P6SM OVC015
     FM292300 06010KT P6SM OVC040=



000
FTUS43 KFSD 282320
TAFHON
TAF
KHON 282320Z 2900/2924 05009KT P6SM BKN018 OVC035
     FM291000 VRB03KT P6SM OVC020
     FM291600 07009KT P6SM OVC035=



000
FTUS43 KFSD 282320
TAFFSD
TAF
KFSD 282320Z 2900/2924 03010KT P6SM OVC012
     FM290200 04007KT P6SM OVC020
     FM290800 05004KT P6SM OVC015
     FM291100 05005KT 5SM BR OVC007
     FM291500 06009KT P6SM OVC012
     FM291900 06010KT P6SM OVC035=



000
FTUS43 KFSD 282245 AAA
TAFSUX
TAF AMD
KSUX 282245Z 2823/2918 33009KT P6SM OVC019
     FM290100 02008KT P6SM OVC035
     FM290800 04005KT 6SM BR OVC010
     FM291500 04008KT P6SM OVC015=



000
FTUS43 KFSD 282245 AAA
TAFSUX
TAF AMD
KSUX 282245Z 2823/2918 33009KT P6SM OVC019
     FM290100 02008KT P6SM OVC035
     FM290800 04005KT 6SM BR OVC010
     FM291500 04008KT P6SM OVC015=



000
FTUS43 KFSD 282243 AAA
TAFHON
TAF AMD
KHON 282243Z 2823/2918 04012KT P6SM OVC018
     FM290000 05008KT P6SM SCT025 OVC035
     FM291000 VRB03KT P6SM OVC020
     FM291600 07009KT P6SM OVC030=



000
FTUS43 KFSD 281720
TAFSUX
TAF
KSUX 281720Z 2818/2918 36010KT P6SM OVC014
     FM282200 01009KT P6SM OVC025
     FM290100 02008KT P6SM OVC035
     FM290800 04005KT 6SM BR OVC010
     FM291500 04008KT P6SM OVC015=



000
FTUS43 KFSD 281720
TAFHON
TAF
KHON 281720Z 2818/2918 04012KT P6SM VCSH OVC012
     FM282100 03010KT P6SM OVC020
     FM290000 05008KT P6SM SCT025 OVC035
     FM291000 VRB03KT P6SM OVC020
     FM291600 07009KT P6SM OVC030=



000
FTUS43 KFSD 281720
TAFFSD
TAF
KFSD 281720Z 2818/2918 02012KT P6SM VCSH OVC009
     FM282000 03010KT P6SM OVC012
     FM290200 04007KT P6SM OVC030
     FM290800 05004KT P6SM OVC015
     FM291100 05005KT 5SM BR OVC007
     FM291500 06009KT P6SM OVC012=



000
FTUS43 KFSD 281215 AAA
TAFSUX
TAF AMD
KSUX 281215Z 2812/2912 35011KT 5SM -RA BR OVC008
     FM281500 36010KT P6SM OVC012
     FM282100 36009KT P6SM OVC025
     FM290200 02008KT P6SM OVC035
     FM290500 02007KT P6SM OVC015
     FM290800 04005KT P6SM OVC010=



000
FTUS43 KFSD 281213 AAA
TAFFSD
TAF AMD
KFSD 281213Z 2812/2912 04010G16KT P6SM -RA OVC009
     FM281700 04010KT P6SM VCSH OVC014
     FM282000 04010KT P6SM OVC015
     FM290300 06006KT P6SM OVC040
     FM290700 06005KT P6SM OVC025
     FM290800 07004KT P6SM OVC015
     FM291100 06005KT P6SM OVC003=



000
FTUS43 KFSD 281120
TAFHON
TAF
KHON 281120Z 2812/2912 03009KT P6SM OVC015
     FM282000 03010KT P6SM OVC025
     FM290000 05009KT P6SM OVC035
     FM290400 05005KT P6SM OVC040
     FM290900 06005KT P6SM OVC030=



000
FTUS43 KFSD 281120
TAFSUX
TAF
KSUX 281120Z 2812/2912 01011KT P6SM -SHRA OVC010
     FM281500 36010KT P6SM OVC012
     FM282100 36009KT P6SM OVC025
     FM290200 02008KT P6SM OVC035
     FM290500 02007KT P6SM OVC015
     FM290800 04005KT P6SM OVC010=



000
FTUS43 KFSD 281120
TAFFSD
TAF
KFSD 281120Z 2812/2912 04012KT P6SM -RA OVC011
     FM281700 04010KT P6SM VCSH OVC014
     FM282000 04010KT P6SM OVC015
     FM290300 06006KT P6SM OVC040
     FM290700 06005KT P6SM OVC025
     FM290800 07004KT P6SM OVC015
     FM291100 06005KT P6SM OVC003=



000
FTUS43 KFSD 280532
TAFSUX
TAF
KSUX 280532Z 2806/2906 05013KT P6SM -SHRA OVC010
     FM281200 02012KT P6SM VCSH OVC008
     FM281700 01011KT P6SM OVC015=



000
FTUS43 KFSD 280532
TAFFSD
TAF
KFSD 280532Z 2806/2906 05014KT P6SM -SHRA OVC008
     FM280900 04012KT 6SM -RA OVC008
     FM281600 04013G19KT P6SM VCSH OVC015
     FM281900 03010KT P6SM OVC020=



000
FTUS43 KFSD 280532
TAFHON
TAF
KHON 280532Z 2806/2906 04009KT 6SM -RA OVC015
     FM280900 03009KT 4SM -RA OVC009
     FM281300 03009KT P6SM -RA OVC012
     FM281800 02011KT P6SM OVC020=



000
FTUS43 KFSD 280301 AAA
TAFSUX
TAF AMD
KSUX 280301Z 2803/2824 07015KT 6SM -RA SCT009 OVC060
      TEMPO 2803/2805 BKN009
     FM280500 05011KT P6SM -SHRA OVC010
     FM281200 02012KT P6SM VCSH OVC008
     FM281700 02011KT P6SM OVC015=



000
FTUS43 KFSD 280230 AAA
TAFHON
TAF AMD
KHON 280230Z 2803/2824 06013KT 6SM -RA OVC015
     FM281400 03011KT 4SM -RA OVC012
     FM281800 02011KT P6SM OVC020=



000
FTUS43 KFSD 272345
TAFHON
TAF
KHON 272345Z 2800/2824 07013G21KT 3SM -RA BR OVC010
     FM280200 04013KT P6SM -RA OVC010
     FM281400 03011KT 4SM -RA OVC012
     FM281800 02011KT P6SM OVC020=



000
FTUS43 KFSD 272345
TAFFSD
TAF
KFSD 272345Z 2800/2824 08018G25KT 6SM -SHRA OVC010
     FM280300 06014G20KT 4SM -SHRA BR OVC008
     FM280900 04012KT 6SM -RA OVC008
     FM281600 04013G19KT P6SM VCSH OVC015
     FM281900 03010KT P6SM OVC020=



000
FTUS43 KFSD 272345
TAFSUX
TAF
KSUX 272345Z 2800/2824 09015G22KT 4SM -SHRA OVC007
     FM280600 05011KT P6SM -SHRA OVC010
     FM281200 02012KT P6SM VCSH OVC008
     FM281700 02011KT P6SM OVC015=



000
FTUS43 KFSD 272345
TAFFSD
TAF
KFSD 272345Z 2800/2824 08018G25KT 6SM -SHRA OVC010
     FM280300 06014G20KT 4SM -SHRA BR OVC008
     FM280900 04012KT 6SM -RA OVC008
     FM281600 04013G19KT P6SM VCSH OVC015
     FM281900 03010KT P6SM OVC020=



000
FTUS43 KFSD 272345
TAFSUX
TAF
KSUX 272345Z 2800/2824 09015G22KT 4SM -SHRA OVC007
     FM280600 05011KT P6SM -SHRA OVC010
     FM281200 02012KT P6SM VCSH OVC008
     FM281700 02011KT P6SM OVC015=



000
FTUS43 KFSD 272345
TAFHON
TAF
KHON 272345Z 2800/2824 07013G21KT 3SM -RA BR OVC010
     FM280200 04013KT P6SM -RA OVC010
     FM281400 03011KT 4SM -RA OVC012
     FM281800 02011KT P6SM OVC020=



000
FTUS43 KFSD 272002 AAB
TAFFSD
TAF AMD
KFSD 272002Z 2720/2818 08018G25KT P6SM VCSH OVC009
     FM280300 06014G20KT 5SM SHRA BR OVC008
     FM280900 04012KT 6SM -RA OVC008
     FM281600 04013G19KT P6SM VCSH OVC015=



000
FTUS43 KFSD 272002 AAA
TAFSUX
TAF AMD
KSUX 272002Z 2720/2818 08018G27KT P6SM VCSH OVC009
     FM280000 08015G22KT 5SM SHRA OVC010
     FM280600 05011KT P6SM VCSH OVC010
     FM281200 02012KT P6SM VCSH OVC008
     FM281700 02011KT P6SM OVC015=



000
FTUS43 KFSD 272000 AAA
TAFHON
TAF AMD
KHON 272000Z 2720/2818 07015G25KT 6SM -RA OVC015
     FM280200 04013KT P6SM -RA OVC010
     FM281400 03011KT P6SM -RA OVC015=



000
FTUS43 KFSD 271730
TAFHON
TAF
KHON 271730Z 2718/2818 07015G22KT 4SM RA BR OVC012
     FM272100 06015G22KT 6SM -SHRA OVC012
     FM280200 04013KT P6SM -RA OVC010
     FM281400 03011KT P6SM -RA OVC015=



000
FTUS43 KFSD 271730
TAFSUX
TAF
KSUX 271730Z 2718/2818 09019G27KT P6SM VCSH OVC010
     FM280000 08015G22KT 5SM SHRA OVC010
     FM280600 05011KT P6SM VCSH OVC010
     FM281200 02012KT P6SM VCSH OVC008
     FM281700 02011KT P6SM OVC015=



000
FTUS43 KFSD 271730
TAFFSD
TAF
KFSD 271730Z 2718/2818 07018G25KT 5SM SHRA BR OVC009
     FM272000 07018G25KT P6SM VCSH OVC010
     FM280300 06014G20KT 5SM SHRA BR OVC008
     FM280900 04012KT 6SM -RA OVC008
     FM281600 04013G19KT P6SM VCSH OVC015=



000
FTUS43 KFSD 271630 AAB
TAFSUX
TAF AMD
KSUX 271630Z 2717/2812 10018G25KT P6SM -RA OVC010
     FM272100 08017G25KT P6SM OVC010
     FM280000 08015G22KT 5SM SHRA OVC010
     FM280600 04010KT P6SM OVC010=



000
FTUS43 KFSD 271630 AAB
TAFSUX
TAF AMD
KSUX 271630Z 2717/2812 10018G25KT P6SM -RA OVC010
     FM272100 08017G25KT P6SM OVC010
     FM280000 08015G22KT 5SM SHRA OVC010
     FM280600 04010KT P6SM OVC010=



000
FTUS43 KFSD 271516 AAC
TAFHON
TAF AMD
KHON 271516Z 2715/2812 08015G22KT 4SM RA BR OVC012
      TEMPO 2715/2719 2SM RA BR OVC009
     FM280200 04015G22KT 6SM -SHRA OVC010=



000
FTUS43 KFSD 271516 AAC
TAFHON
TAF AMD
KHON 271516Z 2715/2812 08015G22KT 4SM RA BR OVC012
      TEMPO 2715/2719 2SM RA BR OVC009
     FM280200 04015G22KT 6SM -SHRA OVC010=



000
FTUS43 KFSD 271403 AAB
TAFHON
TAF AMD
KHON 271403Z 2714/2812 07015G22KT 5SM -RA BR OVC012
     FM280200 04015G22KT 6SM -SHRA OVC010=



000
FTUS43 KFSD 271401 AAB
TAFFSD
TAF AMD
KFSD 271401Z 2714/2812 08022G30KT 4SM RA BR OVC012
     FM271900 07020G28KT P6SM -SHRA OVC012
     FM280600 06015G22KT P6SM SHRA OVC008
     FM281100 04013KT P6SM VCSH OVC008=



000
FTUS43 KFSD 271400 AAA
TAFSUX
TAF AMD
KSUX 271400Z 2714/2812 10018G25KT 5SM SHRA BR OVC012
     FM271800 09019G26KT P6SM OVC012
     FM272100 07017G25KT P6SM TSRA OVC010CB
     FM272200 08017G24KT P6SM SHRA OVC015
     FM280000 08015G22KT P6SM OVC015
     FM280800 04010KT P6SM OVC010=



000
FTUS43 KFSD 271218 AAA
TAFHON
TAF AMD
KHON 271218Z 2712/2812 07012G18KT P6SM -RA OVC008
     FM271500 06017G25KT 5SM RA BR OVC010
     FM280200 04015G22KT 6SM -SHRA OVC010=



000
FTUS43 KFSD 271120
TAFSUX
TAF
KSUX 271120Z 2712/2812 07024G32KT 6SM SHRA OVC008
     FM271500 10020G28KT P6SM OVC008
     FM271900 08019G26KT P6SM OVC010
     FM272100 07017G25KT P6SM TSRA OVC010CB
     FM272200 08017G24KT P6SM SHRA OVC015
     FM280000 08015G22KT P6SM OVC015
     FM280800 04010KT P6SM OVC010=



000
FTUS43 KFSD 271120
TAFHON
TAF
KHON 271120Z 2712/2812 05017G24KT P6SM SHRA OVC008
     FM271400 05017G25KT 5SM SHRA OVC010
     FM280200 04015G22KT P6SM SHRA OVC010=



000
FTUS43 KFSD 271120
TAFSUX
TAF
KSUX 271120Z 2712/2812 07024G32KT 6SM SHRA OVC008
     FM271500 10020G28KT P6SM OVC008
     FM271900 08019G26KT P6SM OVC010
     FM272100 07017G25KT P6SM TSRA OVC010CB
     FM272200 08017G24KT P6SM SHRA OVC015
     FM280000 08015G22KT P6SM OVC015
     FM280800 04010KT P6SM OVC010=



000
FTUS43 KFSD 271120
TAFFSD
TAF
KFSD 271120Z 2712/2812 07022G30KT 6SM SHRA OVC009
     FM271500 07022G30KT P6SM SHRA OVC010
     FM272000 06017G25KT P6SM OVC012
     FM280600 06015G22KT P6SM SHRA OVC008
     FM281100 04013KT P6SM VCSH OVC008=



000
FTUS43 KFSD 271120
TAFFSD
TAF
KFSD 271120Z 2712/2812 07022G30KT 6SM SHRA OVC009
     FM271500 07022G30KT P6SM SHRA OVC010
     FM272000 06017G25KT P6SM OVC012
     FM280600 06015G22KT P6SM SHRA OVC008
     FM281100 04013KT P6SM VCSH OVC008=



000
FTUS43 KFSD 271120
TAFHON
TAF
KHON 271120Z 2712/2812 05017G24KT P6SM SHRA OVC008
     FM271400 05017G25KT 5SM SHRA OVC010
     FM280200 04015G22KT P6SM SHRA OVC010=



000
FTUS43 KFSD 271045 AAB
TAFFSD
TAF AMD
KFSD 271045Z 2711/2806 08022G29KT P6SM SHRA OVC012
     FM271300 08024G32KT 6SM SHRA OVC008
     FM280300 07016G23KT P6SM SHRA OVC008=



000
FTUS43 KFSD 271045 AAB
TAFFSD
TAF AMD
KFSD 271045Z 2711/2806 08022G29KT P6SM SHRA OVC012
     FM271300 08024G32KT 6SM SHRA OVC008
     FM280300 07016G23KT P6SM SHRA OVC008=



000
FTUS43 KFSD 271045 AAA
TAFHON
TAF AMD
KHON 271045Z 2711/2806 06012KT P6SM SHRA OVC012
     FM271200 05019G27KT 6SM SHRA OVC015
     FM271600 06019G26KT 3SM SHRA OVC010
     FM280300 04013KT 6SM RA OVC010=



000
FTUS43 KFSD 270535
TAFSUX
TAF
KSUX 270535Z 2706/2806 08019G27KT P6SM SHRA BKN025
     FM270700 08020G27KT P6SM SHRA OVC020
     FM270900 08021G28KT 6SM SHRA OVC008
     FM272000 09017G24KT P6SM SHRA OVC012
     FM280300 06011KT P6SM SHRA OVC010=



000
FTUS43 KFSD 270535
TAFHON
TAF
KHON 270535Z 2706/2806 06012KT P6SM SHRA OVC008
     FM271200 05019G27KT 6SM SHRA OVC015
     FM271600 06019G26KT 3SM SHRA OVC010
     FM280300 04013KT 6SM RA OVC010=



000
FTUS43 KFSD 270535
TAFFSD
TAF
KFSD 270535Z 2706/2806 07016G24KT P6SM SHRA OVC012
     FM271100 08022G29KT P6SM SHRA OVC015
     FM271300 08024G32KT 6SM SHRA OVC008
     FM280300 07016G23KT P6SM SHRA OVC008=



000
FTUS43 KFSD 270308 AAA
TAFHON
TAF AMD
KHON 270308Z 2703/2724 06011KT P6SM -SHRA OVC008
     FM271000 05019G27KT 6SM SHRA OVC012
     FM271500 05019G26KT 3SM SHRA OVC015=



000
FTUS43 KFSD 270308 AAA
TAFHON
TAF AMD
KHON 270308Z 2703/2724 06011KT P6SM -SHRA OVC008
     FM271000 05019G27KT 6SM SHRA OVC012
     FM271500 05019G26KT 3SM SHRA OVC015=



000
FTUS43 KFSD 270254 AAB
TAFSUX
TAF AMD
KSUX 270254Z 2703/2724 08017G24KT P6SM VCSH SCT025 OVC035
     FM270500 08019G27KT P6SM SHRA OVC020
     FM271200 08021G29KT 4SM SHRA OVC008
     FM272100 09018G25KT 6SM SHRA OVC015=



000
FTUS43 KFSD 270254 AAB
TAFSUX
TAF AMD
KSUX 270254Z 2703/2724 08017G24KT P6SM VCSH SCT025 OVC035
     FM270500 08019G27KT P6SM SHRA OVC020
     FM271200 08021G29KT 4SM SHRA OVC008
     FM272100 09018G25KT 6SM SHRA OVC015=



000
FTUS43 KFSD 270149 AAB
TAFFSD
TAF AMD
KFSD 270149Z 2702/2724 07015KT 5SM -DZ BR OVC005
     FM270330 07018G25KT P6SM SHRA OVC008
     FM270500 07017G24KT P6SM SHRA OVC015
     FM271200 07020G27KT 4SM SHRA OVC008=



000
FTUS43 KFSD 270145 AAA
TAFSUX
TAF AMD
KSUX 270145Z 2702/2724 07014G21KT P6SM VCTS SCT040CB BKN060
     FM270230 08017G24KT P6SM TSRA SCT025 OVC035CB
     FM270600 08019G27KT P6SM SHRA OVC020
     FM271200 08021G29KT 4SM SHRA OVC008
     FM272100 09018G25KT 6SM SHRA OVC015=



000
FTUS43 KFSD 262339
TAFSUX
TAF
KSUX 262339Z 2700/2724 07014G21KT P6SM FEW025 BKN040
     FM270300 08017G24KT P6SM TSRA SCT025 OVC035CB
     FM270600 08019G27KT P6SM SHRA OVC020
     FM271200 08021G29KT 4SM SHRA OVC008
     FM272100 09018G25KT 6SM SHRA OVC015=



000
FTUS43 KFSD 262339
TAFHON
TAF
KHON 262339Z 2700/2724 07011KT P6SM OVC020
     FM270300 06011KT P6SM -SHRA OVC010
     FM271000 05019G27KT 4SM SHRA OVC015
     FM271500 06019G27KT 2SM SHRA OVC008
     FM271900 05019G26KT 3SM SHRA OVC010=



000
FTUS43 KFSD 262339
TAFFSD
TAF
KFSD 262339Z 2700/2724 07015G23KT 4SM -DZ BR OVC006
     FM270400 07018G25KT P6SM VCSH OVC010
     FM270500 07017G24KT P6SM SHRA OVC015
     FM271200 07020G27KT 4SM SHRA OVC008=



000
FTUS43 KFSD 262222 AAA
TAFHON
TAF AMD
KHON 262222Z 2622/2718 06014G21KT P6SM OVC020
     FM270300 06014G21KT P6SM -SHRA OVC012
     FM270700 04015G25KT 4SM RA BR OVC008=



000
FTUS43 KFSD 262222 AAA
TAFHON
TAF AMD
KHON 262222Z 2622/2718 06014G21KT P6SM OVC020
     FM270300 06014G21KT P6SM -SHRA OVC012
     FM270700 04015G25KT 4SM RA BR OVC008=



000
FTUS43 KFSD 262221 AAB
TAFFSD
TAF AMD
KFSD 262221Z 2622/2718 06015G23KT P6SM OVC007
     FM270400 07019G26KT P6SM VCSH OVC010
     FM270800 08021G28KT 5SM SHRA BR OVC010
     FM271100 09021G28KT 5SM SHRA BR OVC008=



000
FTUS43 KFSD 262003 AAA
TAFSUX
TAF AMD
KSUX 262003Z 2620/2718 07015G22KT P6SM SCT030
     FM270000 08016G23KT P6SM VCTS SCT030 BKN060CB
     FM270300 08015G23KT P6SM SHRA BKN030
      TEMPO 2703/2707 5SM TSRA OVC020CB
     FM270700 08019G26KT 5SM SHRA BR OVC010
     FM271200 09015G25KT 3SM SHRA BR OVC006=



000
FTUS43 KFSD 262003 AAA
TAFSUX
TAF AMD
KSUX 262003Z 2620/2718 07015G22KT P6SM SCT030
     FM270000 08016G23KT P6SM VCTS SCT030 BKN060CB
     FM270300 08015G23KT P6SM SHRA BKN030
      TEMPO 2703/2707 5SM TSRA OVC020CB
     FM270700 08019G26KT 5SM SHRA BR OVC010
     FM271200 09015G25KT 3SM SHRA BR OVC006=



    US Dept of Commerce
    National Oceanic and Atmospheric Administration
    National Weather Service
    1325 East West Highway
    Silver Spring, MD 20910
    Page Author: NWS Internet Services Team
Disclaimer
Information Quality
Credits
Glossary
Privacy Policy
Freedom of Information Act (FOIA)
About Us
Career Opportunities